sensor_id;sensor_type;location;lat;lon;timestamp;P1;durP1;ratioP1;P2;durP2;ratioP2
77513;SDS011;66626;48.872;9.084;2023-05-09T00:02:05;19.33;;;12.40;;
77513;SDS011;66626;48.872;9.084;2023-05-09T00:04:31;19.05;;;11.70;;
77513;SDS011;66626;48.872;9.084;2023-05-09T00:06:58;21.38;;;11.95;;
77513;SDS011;66626;48.872;9.084;2023-05-09T00:09:23;24.20;;;12.77;;
77513;SDS011;66626;48.872;9.084;2023-05-09T00:11:49;20.23;;;11.73;;
77513;SDS011;66626;48.872;9.084;2023-05-09T00:14:14;20.75;;;11.50;;
77513;SDS011;66626;48.872;9.084;2023-05-09T00:16:42;19.88;;;12.25;;
77513;SDS011;66626;48.872;9.084;2023-05-09T00:19:08;19.38;;;11.98;;
77513;SDS011;66626;48.872;9.084;2023-05-09T00:21:33;20.67;;;10.90;;
77513;SDS011;66626;48.872;9.084;2023-05-09T00:23:59;21.33;;;12.85;;
77513;SDS011;66626;48.872;9.084;2023-05-09T00:26:25;21.10;;;11.82;;
77513;SDS011;66626;48.872;9.084;2023-05-09T00:28:50;22.60;;;12.55;;
77513;SDS011;66626;48.872;9.084;2023-05-09T00:31:16;20.23;;;12.32;;
77513;SDS011;66626;48.872;9.084;2023-05-09T00:33:41;22.67;;;12.70;;
77513;SDS011;66626;48.872;9.084;2023-05-09T00:36:06;20.42;;;11.25;;
77513;SDS011;66626;48.872;9.084;2023-05-09T00:38:32;20.38;;;11.50;;
77513;SDS011;66626;48.872;9.084;2023-05-09T00:40:57;19.27;;;11.15;;
77513;SDS011;66626;48.872;9.084;2023-05-09T00:43:22;21.50;;;12.50;;
77513;SDS011;66626;48.872;9.084;2023-05-09T00:45:48;21.40;;;12.48;;
77513;SDS011;66626;48.872;9.084;2023-05-09T00:48:14;21.65;;;11.82;;
77513;SDS011;66626;48.872;9.084;2023-05-09T00:50:40;20.30;;;12.27;;
77513;SDS011;66626;48.872;9.084;2023-05-09T00:53:06;20.83;;;12.00;;
77513;SDS011;66626;48.872;9.084;2023-05-09T00:55:32;20.33;;;11.90;;
77513;SDS011;66626;48.872;9.084;2023-05-09T00:57:57;19.15;;;12.68;;
77513;SDS011;66626;48.872;9.084;2023-05-09T01:00:23;20.05;;;13.15;;
77513;SDS011;66626;48.872;9.084;2023-05-09T01:02:52;20.50;;;11.80;;
77513;SDS011;66626;48.872;9.084;2023-05-09T01:05:19;20.40;;;12.40;;
77513;SDS011;66626;48.872;9.084;2023-05-09T01:07:49;20.65;;;11.90;;
77513;SDS011;66626;48.872;9.084;2023-05-09T01:15:38;15.35;;;8.77;;
77513;SDS011;66626;48.872;9.084;2023-05-09T01:18:10;20.00;;;11.10;;
77513;SDS011;66626;48.872;9.084;2023-05-09T01:20:48;21.10;;;11.25;;
77513;SDS011;66626;48.872;9.084;2023-05-09T01:26:02;20.98;;;11.05;;
77513;SDS011;66626;48.872;9.084;2023-05-09T01:31:16;18.30;;;10.40;;
77513;SDS011;66626;48.872;9.084;2023-05-09T01:33:42;20.08;;;12.10;;
77513;SDS011;66626;48.872;9.084;2023-05-09T01:36:14;19.60;;;10.48;;
77513;SDS011;66626;48.872;9.084;2023-05-09T01:38:41;19.13;;;10.43;;
77513;SDS011;66626;48.872;9.084;2023-05-09T01:41:10;19.65;;;10.75;;
77513;SDS011;66626;48.872;9.084;2023-05-09T01:43:37;18.67;;;11.52;;
77513;SDS011;66626;48.872;9.084;2023-05-09T01:46:04;22.08;;;11.95;;
77513;SDS011;66626;48.872;9.084;2023-05-09T01:48:29;23.02;;;12.38;;
77513;SDS011;66626;48.872;9.084;2023-05-09T01:50:55;22.45;;;12.38;;
77513;SDS011;66626;48.872;9.084;2023-05-09T01:53:22;23.40;;;13.70;;
77513;SDS011;66626;48.872;9.084;2023-05-09T01:55:48;22.85;;;13.10;;
77513;SDS011;66626;48.872;9.084;2023-05-09T01:58:14;21.95;;;12.40;;
77513;SDS011;66626;48.872;9.084;2023-05-09T02:00:40;25.25;;;14.07;;
77513;SDS011;66626;48.872;9.084;2023-05-09T02:03:06;23.77;;;13.95;;
77513;SDS011;66626;48.872;9.084;2023-05-09T02:05:32;23.20;;;14.55;;
77513;SDS011;66626;48.872;9.084;2023-05-09T02:07:58;22.70;;;12.88;;
77513;SDS011;66626;48.872;9.084;2023-05-09T02:10:25;22.60;;;13.50;;
77513;SDS011;66626;48.872;9.084;2023-05-09T02:12:52;24.95;;;13.65;;
77513;SDS011;66626;48.872;9.084;2023-05-09T02:15:18;21.90;;;12.77;;
77513;SDS011;66626;48.872;9.084;2023-05-09T02:17:43;24.25;;;13.93;;
77513;SDS011;66626;48.872;9.084;2023-05-09T02:20:08;30.58;;;14.45;;
77513;SDS011;66626;48.872;9.084;2023-05-09T02:22:35;21.85;;;13.55;;
77513;SDS011;66626;48.872;9.084;2023-05-09T02:25:01;23.00;;;14.35;;
77513;SDS011;66626;48.872;9.084;2023-05-09T02:27:29;22.35;;;13.27;;
77513;SDS011;66626;48.872;9.084;2023-05-09T02:29:56;25.10;;;14.45;;
77513;SDS011;66626;48.872;9.084;2023-05-09T02:32:26;22.83;;;11.95;;
77513;SDS011;66626;48.872;9.084;2023-05-09T02:34:53;24.80;;;12.60;;
77513;SDS011;66626;48.872;9.084;2023-05-09T02:37:19;21.63;;;12.95;;
77513;SDS011;66626;48.872;9.084;2023-05-09T02:39:45;22.77;;;12.98;;
77513;SDS011;66626;48.872;9.084;2023-05-09T02:42:12;23.73;;;13.45;;
77513;SDS011;66626;48.872;9.084;2023-05-09T02:44:37;28.25;;;13.80;;
77513;SDS011;66626;48.872;9.084;2023-05-09T02:47:03;27.30;;;14.52;;
77513;SDS011;66626;48.872;9.084;2023-05-09T02:49:30;29.17;;;16.10;;
77513;SDS011;66626;48.872;9.084;2023-05-09T02:51:55;32.67;;;16.45;;
77513;SDS011;66626;48.872;9.084;2023-05-09T02:54:20;28.77;;;15.95;;
77513;SDS011;66626;48.872;9.084;2023-05-09T02:56:46;26.95;;;15.68;;
77513;SDS011;66626;48.872;9.084;2023-05-09T02:59:11;30.65;;;16.35;;
77513;SDS011;66626;48.872;9.084;2023-05-09T03:01:36;33.25;;;17.05;;
77513;SDS011;66626;48.872;9.084;2023-05-09T03:04:02;32.72;;;16.77;;
77513;SDS011;66626;48.872;9.084;2023-05-09T03:06:27;28.70;;;16.20;;
77513;SDS011;66626;48.872;9.084;2023-05-09T03:08:52;28.13;;;15.18;;
77513;SDS011;66626;48.872;9.084;2023-05-09T03:11:18;30.15;;;17.05;;
77513;SDS011;66626;48.872;9.084;2023-05-09T03:13:43;30.35;;;16.85;;
77513;SDS011;66626;48.872;9.084;2023-05-09T03:16:11;28.85;;;16.10;;
77513;SDS011;66626;48.872;9.084;2023-05-09T03:18:37;27.35;;;15.88;;
77513;SDS011;66626;48.872;9.084;2023-05-09T03:21:02;30.48;;;16.52;;
77513;SDS011;66626;48.872;9.084;2023-05-09T03:23:28;30.05;;;15.60;;
77513;SDS011;66626;48.872;9.084;2023-05-09T03:25:53;29.88;;;16.63;;
77513;SDS011;66626;48.872;9.084;2023-05-09T03:28:19;31.98;;;15.38;;
77513;SDS011;66626;48.872;9.084;2023-05-09T03:30:44;29.00;;;16.05;;
77513;SDS011;66626;48.872;9.084;2023-05-09T03:33:09;32.67;;;18.02;;
77513;SDS011;66626;48.872;9.084;2023-05-09T03:35:35;32.97;;;17.63;;
77513;SDS011;66626;48.872;9.084;2023-05-09T03:38:00;30.67;;;16.48;;
77513;SDS011;66626;48.872;9.084;2023-05-09T03:40:25;31.70;;;18.13;;
77513;SDS011;66626;48.872;9.084;2023-05-09T03:42:51;30.33;;;17.20;;
77513;SDS011;66626;48.872;9.084;2023-05-09T03:45:16;31.23;;;16.58;;
77513;SDS011;66626;48.872;9.084;2023-05-09T03:47:41;28.27;;;17.05;;
77513;SDS011;66626;48.872;9.084;2023-05-09T03:50:07;29.13;;;17.67;;
77513;SDS011;66626;48.872;9.084;2023-05-09T03:52:32;27.55;;;15.35;;
77513;SDS011;66626;48.872;9.084;2023-05-09T03:54:58;27.13;;;16.33;;
77513;SDS011;66626;48.872;9.084;2023-05-09T03:57:23;30.83;;;17.08;;
77513;SDS011;66626;48.872;9.084;2023-05-09T03:59:48;32.63;;;16.63;;
77513;SDS011;66626;48.872;9.084;2023-05-09T04:02:15;30.38;;;18.10;;
77513;SDS011;66626;48.872;9.084;2023-05-09T04:04:40;30.25;;;16.23;;
77513;SDS011;66626;48.872;9.084;2023-05-09T04:07:05;30.17;;;16.75;;
77513;SDS011;66626;48.872;9.084;2023-05-09T04:09:31;29.88;;;16.05;;
77513;SDS011;66626;48.872;9.084;2023-05-09T04:11:57;34.13;;;18.73;;
77513;SDS011;66626;48.872;9.084;2023-05-09T04:14:23;32.75;;;17.35;;
77513;SDS011;66626;48.872;9.084;2023-05-09T04:16:48;32.42;;;17.98;;
77513;SDS011;66626;48.872;9.084;2023-05-09T04:19:13;32.70;;;19.27;;
77513;SDS011;66626;48.872;9.084;2023-05-09T04:21:39;33.25;;;18.20;;
77513;SDS011;66626;48.872;9.084;2023-05-09T04:24:04;33.38;;;19.00;;
77513;SDS011;66626;48.872;9.084;2023-05-09T04:26:30;34.15;;;18.98;;
77513;SDS011;66626;48.872;9.084;2023-05-09T04:28:55;31.15;;;16.85;;
77513;SDS011;66626;48.872;9.084;2023-05-09T04:31:21;38.63;;;18.67;;
77513;SDS011;66626;48.872;9.084;2023-05-09T04:33:47;33.42;;;17.85;;
77513;SDS011;66626;48.872;9.084;2023-05-09T04:36:12;34.65;;;19.05;;
77513;SDS011;66626;48.872;9.084;2023-05-09T04:38:37;34.65;;;17.85;;
77513;SDS011;66626;48.872;9.084;2023-05-09T04:41:03;31.48;;;16.55;;
77513;SDS011;66626;48.872;9.084;2023-05-09T04:43:28;34.40;;;17.83;;
77513;SDS011;66626;48.872;9.084;2023-05-09T04:45:55;31.67;;;17.95;;
77513;SDS011;66626;48.872;9.084;2023-05-09T04:48:20;33.67;;;18.20;;
77513;SDS011;66626;48.872;9.084;2023-05-09T04:50:45;32.13;;;18.15;;
77513;SDS011;66626;48.872;9.084;2023-05-09T04:53:12;30.77;;;16.70;;
77513;SDS011;66626;48.872;9.084;2023-05-09T04:55:38;34.20;;;18.98;;
77513;SDS011;66626;48.872;9.084;2023-05-09T04:58:03;35.33;;;18.05;;
77513;SDS011;66626;48.872;9.084;2023-05-09T05:00:28;38.67;;;18.92;;
77513;SDS011;66626;48.872;9.084;2023-05-09T05:02:54;35.40;;;17.83;;
77513;SDS011;66626;48.872;9.084;2023-05-09T05:05:19;33.10;;;18.45;;
77513;SDS011;66626;48.872;9.084;2023-05-09T05:07:45;31.02;;;16.98;;
77513;SDS011;66626;48.872;9.084;2023-05-09T05:10:10;32.33;;;17.40;;
77513;SDS011;66626;48.872;9.084;2023-05-09T05:12:35;31.38;;;18.17;;
77513;SDS011;66626;48.872;9.084;2023-05-09T05:15:01;34.22;;;19.30;;
77513;SDS011;66626;48.872;9.084;2023-05-09T05:17:26;37.13;;;19.17;;
77513;SDS011;66626;48.872;9.084;2023-05-09T05:19:53;35.28;;;18.20;;
77513;SDS011;66626;48.872;9.084;2023-05-09T05:22:18;35.15;;;19.08;;
77513;SDS011;66626;48.872;9.084;2023-05-09T05:24:44;32.72;;;18.65;;
77513;SDS011;66626;48.872;9.084;2023-05-09T05:27:09;37.42;;;17.27;;
77513;SDS011;66626;48.872;9.084;2023-05-09T05:29:35;32.28;;;19.30;;
77513;SDS011;66626;48.872;9.084;2023-05-09T05:32:00;32.38;;;19.65;;
77513;SDS011;66626;48.872;9.084;2023-05-09T05:34:25;29.55;;;17.27;;
77513;SDS011;66626;48.872;9.084;2023-05-09T05:36:51;30.48;;;16.05;;
77513;SDS011;66626;48.872;9.084;2023-05-09T05:39:16;30.08;;;17.83;;
77513;SDS011;66626;48.872;9.084;2023-05-09T05:41:42;33.17;;;17.80;;
77513;SDS011;66626;48.872;9.084;2023-05-09T05:44:07;30.85;;;17.90;;
77513;SDS011;66626;48.872;9.084;2023-05-09T05:46:32;28.58;;;17.00;;
77513;SDS011;66626;48.872;9.084;2023-05-09T05:48:58;32.92;;;17.10;;
77513;SDS011;66626;48.872;9.084;2023-05-09T05:51:23;28.30;;;16.15;;
77513;SDS011;66626;48.872;9.084;2023-05-09T05:53:48;34.08;;;17.48;;
77513;SDS011;66626;48.872;9.084;2023-05-09T05:56:13;33.42;;;18.02;;
77513;SDS011;66626;48.872;9.084;2023-05-09T05:58:39;27.77;;;16.48;;
77513;SDS011;66626;48.872;9.084;2023-05-09T06:01:04;33.75;;;18.88;;
77513;SDS011;66626;48.872;9.084;2023-05-09T06:03:30;27.98;;;17.75;;
77513;SDS011;66626;48.872;9.084;2023-05-09T06:05:55;27.27;;;16.33;;
77513;SDS011;66626;48.872;9.084;2023-05-09T06:08:21;30.10;;;17.17;;
77513;SDS011;66626;48.872;9.084;2023-05-09T06:10:46;30.48;;;14.93;;
77513;SDS011;66626;48.872;9.084;2023-05-09T06:13:12;32.97;;;15.73;;
77513;SDS011;66626;48.872;9.084;2023-05-09T06:15:37;35.92;;;17.17;;
77513;SDS011;66626;48.872;9.084;2023-05-09T06:18:02;33.83;;;16.17;;
77513;SDS011;66626;48.872;9.084;2023-05-09T06:20:28;27.60;;;15.38;;
77513;SDS011;66626;48.872;9.084;2023-05-09T06:22:53;26.23;;;14.40;;
77513;SDS011;66626;48.872;9.084;2023-05-09T06:25:18;29.10;;;15.30;;
77513;SDS011;66626;48.872;9.084;2023-05-09T06:27:44;26.40;;;14.43;;
77513;SDS011;66626;48.872;9.084;2023-05-09T06:30:09;23.88;;;14.32;;
77513;SDS011;66626;48.872;9.084;2023-05-09T06:32:35;30.63;;;15.38;;
77513;SDS011;66626;48.872;9.084;2023-05-09T06:35:00;28.30;;;15.35;;
77513;SDS011;66626;48.872;9.084;2023-05-09T06:37:26;23.80;;;14.57;;
77513;SDS011;66626;48.872;9.084;2023-05-09T06:39:51;24.17;;;14.45;;
77513;SDS011;66626;48.872;9.084;2023-05-09T06:42:16;26.02;;;14.15;;
77513;SDS011;66626;48.872;9.084;2023-05-09T06:44:42;21.90;;;14.55;;
77513;SDS011;66626;48.872;9.084;2023-05-09T06:47:07;27.88;;;14.10;;
77513;SDS011;66626;48.872;9.084;2023-05-09T06:49:33;24.98;;;13.73;;
77513;SDS011;66626;48.872;9.084;2023-05-09T06:51:58;24.88;;;13.75;;
77513;SDS011;66626;48.872;9.084;2023-05-09T06:54:24;26.98;;;14.05;;
77513;SDS011;66626;48.872;9.084;2023-05-09T06:56:49;28.42;;;16.08;;
77513;SDS011;66626;48.872;9.084;2023-05-09T06:59:14;23.42;;;13.40;;
77513;SDS011;66626;48.872;9.084;2023-05-09T07:01:55;24.67;;;14.80;;
77513;SDS011;66626;48.872;9.084;2023-05-09T07:04:20;25.65;;;12.82;;
77513;SDS011;66626;48.872;9.084;2023-05-09T07:06:46;24.75;;;14.52;;
77513;SDS011;66626;48.872;9.084;2023-05-09T07:09:11;25.05;;;13.15;;
77513;SDS011;66626;48.872;9.084;2023-05-09T07:11:39;26.55;;;13.88;;
77513;SDS011;66626;48.872;9.084;2023-05-09T07:14:04;26.05;;;14.23;;
77513;SDS011;66626;48.872;9.084;2023-05-09T07:16:29;25.50;;;14.15;;
77513;SDS011;66626;48.872;9.084;2023-05-09T07:18:55;26.40;;;13.07;;
77513;SDS011;66626;48.872;9.084;2023-05-09T07:21:20;26.52;;;14.35;;
77513;SDS011;66626;48.872;9.084;2023-05-09T07:23:45;24.80;;;13.43;;
77513;SDS011;66626;48.872;9.084;2023-05-09T07:26:11;24.55;;;13.88;;
77513;SDS011;66626;48.872;9.084;2023-05-09T07:28:36;23.40;;;13.18;;
77513;SDS011;66626;48.872;9.084;2023-05-09T07:31:01;23.42;;;11.52;;
77513;SDS011;66626;48.872;9.084;2023-05-09T07:33:27;20.55;;;11.50;;
77513;SDS011;66626;48.872;9.084;2023-05-09T07:35:52;22.70;;;12.63;;
77513;SDS011;66626;48.872;9.084;2023-05-09T07:38:18;22.55;;;12.23;;
77513;SDS011;66626;48.872;9.084;2023-05-09T07:40:43;23.98;;;13.50;;
77513;SDS011;66626;48.872;9.084;2023-05-09T07:43:08;26.27;;;12.23;;
77513;SDS011;66626;48.872;9.084;2023-05-09T07:45:34;22.17;;;12.93;;
77513;SDS011;66626;48.872;9.084;2023-05-09T07:47:59;20.23;;;10.90;;
77513;SDS011;66626;48.872;9.084;2023-05-09T07:50:24;20.95;;;11.43;;
77513;SDS011;66626;48.872;9.084;2023-05-09T07:52:50;17.75;;;10.18;;
77513;SDS011;66626;48.872;9.084;2023-05-09T07:55:16;20.38;;;11.07;;
77513;SDS011;66626;48.872;9.084;2023-05-09T07:57:41;20.88;;;11.40;;
77513;SDS011;66626;48.872;9.084;2023-05-09T08:00:07;22.27;;;10.75;;
77513;SDS011;66626;48.872;9.084;2023-05-09T08:02:34;19.13;;;10.80;;
77513;SDS011;66626;48.872;9.084;2023-05-09T08:04:59;16.60;;;9.18;;
77513;SDS011;66626;48.872;9.084;2023-05-09T08:07:25;16.33;;;9.70;;
77513;SDS011;66626;48.872;9.084;2023-05-09T08:09:50;18.05;;;10.50;;
77513;SDS011;66626;48.872;9.084;2023-05-09T08:12:16;20.10;;;10.48;;
77513;SDS011;66626;48.872;9.084;2023-05-09T08:14:41;15.77;;;8.25;;
77513;SDS011;66626;48.872;9.084;2023-05-09T08:17:06;17.27;;;9.60;;
77513;SDS011;66626;48.872;9.084;2023-05-09T08:19:31;15.00;;;8.48;;
77513;SDS011;66626;48.872;9.084;2023-05-09T08:21:57;15.52;;;8.73;;
77513;SDS011;66626;48.872;9.084;2023-05-09T08:24:22;23.80;;;10.50;;
77513;SDS011;66626;48.872;9.084;2023-05-09T08:26:47;14.85;;;9.15;;
77513;SDS011;66626;48.872;9.084;2023-05-09T08:29:13;20.00;;;11.02;;
77513;SDS011;66626;48.872;9.084;2023-05-09T08:31:38;15.02;;;8.85;;
77513;SDS011;66626;48.872;9.084;2023-05-09T08:34:04;13.82;;;8.80;;
77513;SDS011;66626;48.872;9.084;2023-05-09T08:36:29;16.70;;;9.02;;
77513;SDS011;66626;48.872;9.084;2023-05-09T08:38:54;16.27;;;9.60;;
77513;SDS011;66626;48.872;9.084;2023-05-09T08:41:20;16.38;;;9.30;;
77513;SDS011;66626;48.872;9.084;2023-05-09T08:43:50;19.60;;;11.57;;
77513;SDS011;66626;48.872;9.084;2023-05-09T08:46:15;22.30;;;10.57;;
77513;SDS011;66626;48.872;9.084;2023-05-09T08:48:41;16.50;;;8.93;;
77513;SDS011;66626;48.872;9.084;2023-05-09T08:51:07;17.88;;;9.45;;
77513;SDS011;66626;48.872;9.084;2023-05-09T08:53:35;18.90;;;9.55;;
77513;SDS011;66626;48.872;9.084;2023-05-09T08:56:01;13.98;;;9.15;;
77513;SDS011;66626;48.872;9.084;2023-05-09T08:58:27;16.00;;;8.50;;
77513;SDS011;66626;48.872;9.084;2023-05-09T09:00:53;12.65;;;6.68;;
77513;SDS011;66626;48.872;9.084;2023-05-09T09:03:19;13.73;;;7.65;;
77513;SDS011;66626;48.872;9.084;2023-05-09T09:05:45;12.18;;;6.30;;
77513;SDS011;66626;48.872;9.084;2023-05-09T09:08:11;15.27;;;8.50;;
77513;SDS011;66626;48.872;9.084;2023-05-09T09:10:38;15.10;;;8.52;;
77513;SDS011;66626;48.872;9.084;2023-05-09T09:13:06;14.60;;;8.15;;
77513;SDS011;66626;48.872;9.084;2023-05-09T09:15:35;13.55;;;7.95;;
77513;SDS011;66626;48.872;9.084;2023-05-09T09:18:04;13.65;;;7.38;;
77513;SDS011;66626;48.872;9.084;2023-05-09T09:20:31;13.60;;;7.70;;
77513;SDS011;66626;48.872;9.084;2023-05-09T09:22:58;13.57;;;7.78;;
77513;SDS011;66626;48.872;9.084;2023-05-09T09:25:27;15.40;;;8.15;;
77513;SDS011;66626;48.872;9.084;2023-05-09T09:27:53;12.65;;;7.07;;
77513;SDS011;66626;48.872;9.084;2023-05-09T09:30:18;11.30;;;7.38;;
77513;SDS011;66626;48.872;9.084;2023-05-09T09:32:43;12.35;;;6.90;;
77513;SDS011;66626;48.872;9.084;2023-05-09T09:35:10;10.80;;;6.32;;
77513;SDS011;66626;48.872;9.084;2023-05-09T09:37:36;15.23;;;8.55;;
77513;SDS011;66626;48.872;9.084;2023-05-09T09:40:04;12.82;;;7.80;;
77513;SDS011;66626;48.872;9.084;2023-05-09T09:42:39;15.18;;;7.28;;
77513;SDS011;66626;48.872;9.084;2023-05-09T09:45:15;11.38;;;6.53;;
77513;SDS011;66626;48.872;9.084;2023-05-09T09:47:41;12.00;;;6.65;;
77513;SDS011;66626;48.872;9.084;2023-05-09T09:50:08;11.40;;;6.90;;
77513;SDS011;66626;48.872;9.084;2023-05-09T09:52:34;12.85;;;8.35;;
77513;SDS011;66626;48.872;9.084;2023-05-09T09:55:00;13.52;;;8.32;;
77513;SDS011;66626;48.872;9.084;2023-05-09T09:57:32;14.85;;;8.10;;
77513;SDS011;66626;48.872;9.084;2023-05-09T10:00:00;11.27;;;7.35;;
77513;SDS011;66626;48.872;9.084;2023-05-09T10:02:26;11.90;;;6.78;;
77513;SDS011;66626;48.872;9.084;2023-05-09T10:04:51;13.52;;;8.07;;
77513;SDS011;66626;48.872;9.084;2023-05-09T10:07:17;13.68;;;7.95;;
77513;SDS011;66626;48.872;9.084;2023-05-09T10:09:46;15.10;;;8.82;;
77513;SDS011;66626;48.872;9.084;2023-05-09T10:12:13;14.15;;;8.18;;
77513;SDS011;66626;48.872;9.084;2023-05-09T10:14:42;16.52;;;8.60;;
77513;SDS011;66626;48.872;9.084;2023-05-09T10:17:07;15.63;;;8.27;;
77513;SDS011;66626;48.872;9.084;2023-05-09T10:19:35;13.02;;;8.20;;
77513;SDS011;66626;48.872;9.084;2023-05-09T10:22:06;9.63;;;5.35;;
77513;SDS011;66626;48.872;9.084;2023-05-09T10:24:37;8.90;;;5.18;;
77513;SDS011;66626;48.872;9.084;2023-05-09T10:27:05;10.77;;;6.90;;
77513;SDS011;66626;48.872;9.084;2023-05-09T10:29:35;12.68;;;6.22;;
77513;SDS011;66626;48.872;9.084;2023-05-09T10:32:04;13.70;;;6.75;;
77513;SDS011;66626;48.872;9.084;2023-05-09T10:34:36;12.07;;;6.43;;
77513;SDS011;66626;48.872;9.084;2023-05-09T10:37:04;9.55;;;5.70;;
77513;SDS011;66626;48.872;9.084;2023-05-09T10:39:30;11.55;;;5.82;;
77513;SDS011;66626;48.872;9.084;2023-05-09T10:41:57;10.10;;;5.80;;
77513;SDS011;66626;48.872;9.084;2023-05-09T10:44:23;9.35;;;5.30;;
77513;SDS011;66626;48.872;9.084;2023-05-09T10:46:49;9.88;;;5.60;;
77513;SDS011;66626;48.872;9.084;2023-05-09T10:49:14;12.45;;;6.40;;
77513;SDS011;66626;48.872;9.084;2023-05-09T10:51:40;9.57;;;5.70;;
77513;SDS011;66626;48.872;9.084;2023-05-09T10:54:12;8.80;;;5.22;;
77513;SDS011;66626;48.872;9.084;2023-05-09T10:56:39;9.32;;;5.95;;
77513;SDS011;66626;48.872;9.084;2023-05-09T10:59:04;10.00;;;5.60;;
77513;SDS011;66626;48.872;9.084;2023-05-09T11:01:34;10.77;;;6.32;;
77513;SDS011;66626;48.872;9.084;2023-05-09T11:04:01;11.07;;;6.25;;
77513;SDS011;66626;48.872;9.084;2023-05-09T11:22:12;12.20;;;6.63;;
77513;SDS011;66626;48.872;9.084;2023-05-09T11:24:39;9.10;;;5.20;;
77513;SDS011;66626;48.872;9.084;2023-05-09T11:27:24;10.05;;;6.40;;
77513;SDS011;66626;48.872;9.084;2023-05-09T11:29:51;9.85;;;5.38;;
77513;SDS011;66626;48.872;9.084;2023-05-09T11:32:19;10.30;;;6.07;;
77513;SDS011;66626;48.872;9.084;2023-05-09T11:34:45;9.25;;;5.97;;
77513;SDS011;66626;48.872;9.084;2023-05-09T11:37:12;7.85;;;4.55;;
77513;SDS011;66626;48.872;9.084;2023-05-09T11:39:53;11.35;;;5.88;;
77513;SDS011;66626;48.872;9.084;2023-05-09T11:42:23;10.90;;;5.90;;
77513;SDS011;66626;48.872;9.084;2023-05-09T11:44:50;9.38;;;5.70;;
77513;SDS011;66626;48.872;9.084;2023-05-09T11:47:15;11.35;;;6.07;;
77513;SDS011;66626;48.872;9.084;2023-05-09T11:49:43;12.32;;;6.80;;
77513;SDS011;66626;48.872;9.084;2023-05-09T11:52:09;10.43;;;5.70;;
77513;SDS011;66626;48.872;9.084;2023-05-09T11:54:35;10.18;;;5.07;;
77513;SDS011;66626;48.872;9.084;2023-05-09T11:57:02;9.45;;;5.90;;
77513;SDS011;66626;48.872;9.084;2023-05-09T11:59:28;10.57;;;6.15;;
77513;SDS011;66626;48.872;9.084;2023-05-09T12:01:54;11.93;;;6.05;;
77513;SDS011;66626;48.872;9.084;2023-05-09T12:04:19;10.65;;;4.88;;
77513;SDS011;66626;48.872;9.084;2023-05-09T12:06:47;8.57;;;5.43;;
77513;SDS011;66626;48.872;9.084;2023-05-09T12:09:13;10.85;;;5.43;;
77513;SDS011;66626;48.872;9.084;2023-05-09T12:11:46;9.48;;;4.90;;
77513;SDS011;66626;48.872;9.084;2023-05-09T12:14:24;8.07;;;4.72;;
77513;SDS011;66626;48.872;9.084;2023-05-09T12:16:53;9.30;;;5.45;;
77513;SDS011;66626;48.872;9.084;2023-05-09T12:19:19;7.22;;;4.05;;
77513;SDS011;66626;48.872;9.084;2023-05-09T12:21:45;6.63;;;3.67;;
77513;SDS011;66626;48.872;9.084;2023-05-09T12:24:10;5.30;;;2.70;;
77513;SDS011;66626;48.872;9.084;2023-05-09T12:26:35;4.80;;;2.65;;
77513;SDS011;66626;48.872;9.084;2023-05-09T12:29:01;5.25;;;2.55;;
77513;SDS011;66626;48.872;9.084;2023-05-09T12:31:26;5.25;;;2.22;;
77513;SDS011;66626;48.872;9.084;2023-05-09T12:33:53;4.82;;;2.40;;
77513;SDS011;66626;48.872;9.084;2023-05-09T12:36:18;5.13;;;2.38;;
77513;SDS011;66626;48.872;9.084;2023-05-09T12:38:53;5.03;;;2.67;;
77513;SDS011;66626;48.872;9.084;2023-05-09T12:41:19;6.18;;;2.95;;
77513;SDS011;66626;48.872;9.084;2023-05-09T12:43:46;4.88;;;2.35;;
77513;SDS011;66626;48.872;9.084;2023-05-09T12:46:16;5.90;;;2.97;;
77513;SDS011;66626;48.872;9.084;2023-05-09T12:51:07;3.47;;;1.70;;
77513;SDS011;66626;48.872;9.084;2023-05-09T12:53:37;3.92;;;1.80;;
77513;SDS011;66626;48.872;9.084;2023-05-09T12:56:04;4.97;;;1.75;;
77513;SDS011;66626;48.872;9.084;2023-05-09T12:58:35;4.18;;;1.95;;
77513;SDS011;66626;48.872;9.084;2023-05-09T13:01:04;4.40;;;2.00;;
77513;SDS011;66626;48.872;9.084;2023-05-09T13:03:30;3.95;;;1.80;;
77513;SDS011;66626;48.872;9.084;2023-05-09T13:06:02;3.75;;;1.67;;
77513;SDS011;66626;48.872;9.084;2023-05-09T13:08:29;5.45;;;2.65;;
77513;SDS011;66626;48.872;9.084;2023-05-09T13:10:54;4.55;;;2.40;;
77513;SDS011;66626;48.872;9.084;2023-05-09T13:13:21;5.70;;;2.92;;
77513;SDS011;66626;48.872;9.084;2023-05-09T13:15:50;6.68;;;3.05;;
77513;SDS011;66626;48.872;9.084;2023-05-09T13:18:16;6.22;;;2.65;;
77513;SDS011;66626;48.872;9.084;2023-05-09T13:20:41;4.47;;;2.38;;
77513;SDS011;66626;48.872;9.084;2023-05-09T13:23:06;6.53;;;3.20;;
77513;SDS011;66626;48.872;9.084;2023-05-09T13:25:32;4.70;;;2.10;;
77513;SDS011;66626;48.872;9.084;2023-05-09T13:27:57;4.20;;;2.13;;
77513;SDS011;66626;48.872;9.084;2023-05-09T13:30:22;4.70;;;1.98;;
77513;SDS011;66626;48.872;9.084;2023-05-09T13:32:48;3.83;;;1.60;;
77513;SDS011;66626;48.872;9.084;2023-05-09T13:35:13;4.10;;;1.67;;
77513;SDS011;66626;48.872;9.084;2023-05-09T13:37:39;3.50;;;1.40;;
77513;SDS011;66626;48.872;9.084;2023-05-09T13:40:05;3.78;;;1.70;;
77513;SDS011;66626;48.872;9.084;2023-05-09T13:42:32;4.03;;;1.55;;
77513;SDS011;66626;48.872;9.084;2023-05-09T13:44:58;3.35;;;1.40;;
77513;SDS011;66626;48.872;9.084;2023-05-09T13:47:23;3.92;;;1.58;;
77513;SDS011;66626;48.872;9.084;2023-05-09T13:49:48;3.78;;;1.50;;
77513;SDS011;66626;48.872;9.084;2023-05-09T13:52:14;4.38;;;1.55;;
77513;SDS011;66626;48.872;9.084;2023-05-09T13:54:40;3.80;;;1.60;;
77513;SDS011;66626;48.872;9.084;2023-05-09T13:57:06;3.35;;;1.48;;
77513;SDS011;66626;48.872;9.084;2023-05-09T13:59:32;3.30;;;1.50;;
77513;SDS011;66626;48.872;9.084;2023-05-09T14:01:57;3.13;;;1.33;;
77513;SDS011;66626;48.872;9.084;2023-05-09T14:04:24;4.15;;;1.75;;
77513;SDS011;66626;48.872;9.084;2023-05-09T14:06:50;3.58;;;1.40;;
77513;SDS011;66626;48.872;9.084;2023-05-09T14:09:16;3.22;;;1.42;;
77513;SDS011;66626;48.872;9.084;2023-05-09T14:11:42;4.00;;;1.50;;
77513;SDS011;66626;48.872;9.084;2023-05-09T14:14:07;3.20;;;1.27;;
77513;SDS011;66626;48.872;9.084;2023-05-09T14:16:32;3.83;;;1.33;;
77513;SDS011;66626;48.872;9.084;2023-05-09T14:18:58;3.60;;;1.50;;
77513;SDS011;66626;48.872;9.084;2023-05-09T14:21:23;3.33;;;1.33;;
77513;SDS011;66626;48.872;9.084;2023-05-09T14:23:49;3.55;;;1.60;;
77513;SDS011;66626;48.872;9.084;2023-05-09T14:26:15;4.57;;;1.70;;
77513;SDS011;66626;48.872;9.084;2023-05-09T14:28:41;3.60;;;1.30;;
77513;SDS011;66626;48.872;9.084;2023-05-09T14:31:06;3.60;;;1.45;;
77513;SDS011;66626;48.872;9.084;2023-05-09T14:33:31;4.47;;;2.08;;
77513;SDS011;66626;48.872;9.084;2023-05-09T14:35:58;3.65;;;1.63;;
77513;SDS011;66626;48.872;9.084;2023-05-09T14:38:26;3.80;;;1.60;;
77513;SDS011;66626;48.872;9.084;2023-05-09T14:40:52;6.78;;;3.97;;
77513;SDS011;66626;48.872;9.084;2023-05-09T14:43:17;4.63;;;2.10;;
77513;SDS011;66626;48.872;9.084;2023-05-09T14:45:43;4.75;;;1.88;;
77513;SDS011;66626;48.872;9.084;2023-05-09T14:48:08;4.80;;;2.10;;
77513;SDS011;66626;48.872;9.084;2023-05-09T14:50:33;3.60;;;1.70;;
77513;SDS011;66626;48.872;9.084;2023-05-09T14:52:59;3.92;;;1.83;;
77513;SDS011;66626;48.872;9.084;2023-05-09T14:55:25;4.45;;;1.80;;